sensor_id;sensor_type;location;lat;lon;timestamp;P1;durP1;ratioP1;P2;durP2;ratioP2
73452;SDS011;61687;56.232;43.854;2023-12-20T00:01:51;6.65;;;3.83;;
73452;SDS011;61687;56.232;43.854;2023-12-20T00:04:17;6.07;;;3.73;;
73452;SDS011;61687;56.232;43.854;2023-12-20T00:06:43;7.47;;;4.65;;
73452;SDS011;61687;56.232;43.854;2023-12-20T00:09:09;6.55;;;3.40;;
73452;SDS011;61687;56.232;43.854;2023-12-20T00:11:35;6.23;;;3.67;;
73452;SDS011;61687;56.232;43.854;2023-12-20T00:14:01;6.32;;;3.00;;
73452;SDS011;61687;56.232;43.854;2023-12-20T00:16:28;6.22;;;4.15;;
73452;SDS011;61687;56.232;43.854;2023-12-20T00:18:53;6.32;;;3.88;;
73452;SDS011;61687;56.232;43.854;2023-12-20T00:21:19;5.67;;;2.93;;
73452;SDS011;61687;56.232;43.854;2023-12-20T00:23:45;6.55;;;4.25;;
73452;SDS011;61687;56.232;43.854;2023-12-20T00:26:11;6.47;;;3.77;;
73452;SDS011;61687;56.232;43.854;2023-12-20T00:28:37;5.30;;;3.60;;
73452;SDS011;61687;56.232;43.854;2023-12-20T00:31:03;5.53;;;3.53;;
73452;SDS011;61687;56.232;43.854;2023-12-20T00:33:30;5.32;;;3.30;;
73452;SDS011;61687;56.232;43.854;2023-12-20T00:35:55;6.18;;;4.20;;
73452;SDS011;61687;56.232;43.854;2023-12-20T00:38:21;5.80;;;3.53;;
73452;SDS011;61687;56.232;43.854;2023-12-20T00:40:48;5.10;;;3.15;;
73452;SDS011;61687;56.232;43.854;2023-12-20T00:43:15;4.68;;;3.03;;
73452;SDS011;61687;56.232;43.854;2023-12-20T00:45:41;5.73;;;3.27;;
73452;SDS011;61687;56.232;43.854;2023-12-20T00:48:07;5.00;;;2.70;;
73452;SDS011;61687;56.232;43.854;2023-12-20T00:50:33;5.43;;;3.15;;
73452;SDS011;61687;56.232;43.854;2023-12-20T00:52:58;5.95;;;3.28;;
73452;SDS011;61687;56.232;43.854;2023-12-20T00:55:24;5.97;;;3.45;;
73452;SDS011;61687;56.232;43.854;2023-12-20T00:57:50;6.28;;;3.78;;
73452;SDS011;61687;56.232;43.854;2023-12-20T01:00:16;5.97;;;3.33;;
73452;SDS011;61687;56.232;43.854;2023-12-20T01:02:42;5.20;;;3.20;;
73452;SDS011;61687;56.232;43.854;2023-12-20T01:05:08;5.72;;;3.67;;
73452;SDS011;61687;56.232;43.854;2023-12-20T01:07:35;5.32;;;3.40;;
73452;SDS011;61687;56.232;43.854;2023-12-20T01:10:01;5.55;;;3.78;;
73452;SDS011;61687;56.232;43.854;2023-12-20T01:12:29;5.63;;;3.40;;
73452;SDS011;61687;56.232;43.854;2023-12-20T01:14:55;5.45;;;3.22;;
73452;SDS011;61687;56.232;43.854;2023-12-20T01:17:20;5.57;;;3.17;;
73452;SDS011;61687;56.232;43.854;2023-12-20T01:19:46;7.23;;;3.40;;
73452;SDS011;61687;56.232;43.854;2023-12-20T01:22:12;4.72;;;2.88;;
73452;SDS011;61687;56.232;43.854;2023-12-20T01:24:38;6.85;;;3.17;;
73452;SDS011;61687;56.232;43.854;2023-12-20T01:27:04;6.75;;;3.45;;
73452;SDS011;61687;56.232;43.854;2023-12-20T01:29:30;5.30;;;2.93;;
73452;SDS011;61687;56.232;43.854;2023-12-20T01:31:56;5.50;;;3.60;;
73452;SDS011;61687;56.232;43.854;2023-12-20T01:34:22;5.60;;;3.67;;
73452;SDS011;61687;56.232;43.854;2023-12-20T01:36:47;6.22;;;3.50;;
73452;SDS011;61687;56.232;43.854;2023-12-20T01:39:13;7.05;;;3.88;;
73452;SDS011;61687;56.232;43.854;2023-12-20T01:41:39;7.23;;;4.00;;
73452;SDS011;61687;56.232;43.854;2023-12-20T01:44:05;6.70;;;3.58;;
73452;SDS011;61687;56.232;43.854;2023-12-20T01:46:31;7.00;;;3.90;;
73452;SDS011;61687;56.232;43.854;2023-12-20T01:48:57;6.53;;;3.83;;
73452;SDS011;61687;56.232;43.854;2023-12-20T01:51:23;7.28;;;3.60;;
73452;SDS011;61687;56.232;43.854;2023-12-20T01:53:50;6.18;;;3.80;;
73452;SDS011;61687;56.232;43.854;2023-12-20T01:56:16;6.22;;;3.30;;
73452;SDS011;61687;56.232;43.854;2023-12-20T01:58:45;9.32;;;4.03;;
73452;SDS011;61687;56.232;43.854;2023-12-20T02:01:13;8.52;;;4.00;;
73452;SDS011;61687;56.232;43.854;2023-12-20T02:03:40;6.18;;;3.70;;
73452;SDS011;61687;56.232;43.854;2023-12-20T02:06:07;6.40;;;3.70;;
73452;SDS011;61687;56.232;43.854;2023-12-20T02:08:35;4.97;;;3.17;;
73452;SDS011;61687;56.232;43.854;2023-12-20T02:11:01;5.18;;;3.60;;
73452;SDS011;61687;56.232;43.854;2023-12-20T02:13:28;5.63;;;3.58;;
73452;SDS011;61687;56.232;43.854;2023-12-20T02:15:55;4.53;;;2.97;;
73452;SDS011;61687;56.232;43.854;2023-12-20T02:18:21;4.60;;;3.00;;
73452;SDS011;61687;56.232;43.854;2023-12-20T02:20:47;4.82;;;3.22;;
73452;SDS011;61687;56.232;43.854;2023-12-20T02:23:13;6.33;;;3.70;;
73452;SDS011;61687;56.232;43.854;2023-12-20T02:25:39;5.05;;;3.10;;
73452;SDS011;61687;56.232;43.854;2023-12-20T02:28:05;4.90;;;3.10;;
73452;SDS011;61687;56.232;43.854;2023-12-20T02:30:32;4.70;;;2.72;;
73452;SDS011;61687;56.232;43.854;2023-12-20T02:32:59;5.20;;;3.28;;
73452;SDS011;61687;56.232;43.854;2023-12-20T02:35:26;6.57;;;3.03;;
73452;SDS011;61687;56.232;43.854;2023-12-20T02:37:52;5.18;;;3.28;;
73452;SDS011;61687;56.232;43.854;2023-12-20T02:40:18;7.00;;;3.22;;
73452;SDS011;61687;56.232;43.854;2023-12-20T02:42:44;5.23;;;3.30;;
73452;SDS011;61687;56.232;43.854;2023-12-20T02:45:10;6.07;;;3.00;;
73452;SDS011;61687;56.232;43.854;2023-12-20T02:47:36;5.90;;;3.13;;
73452;SDS011;61687;56.232;43.854;2023-12-20T02:50:02;5.50;;;3.58;;
73452;SDS011;61687;56.232;43.854;2023-12-20T02:52:30;5.70;;;3.60;;
73452;SDS011;61687;56.232;43.854;2023-12-20T02:54:56;6.30;;;4.03;;
73452;SDS011;61687;56.232;43.854;2023-12-20T02:57:22;6.97;;;3.25;;
73452;SDS011;61687;56.232;43.854;2023-12-20T02:59:48;6.80;;;3.78;;
73452;SDS011;61687;56.232;43.854;2023-12-20T03:02:14;5.33;;;3.17;;
73452;SDS011;61687;56.232;43.854;2023-12-20T03:04:41;6.65;;;3.55;;
73452;SDS011;61687;56.232;43.854;2023-12-20T03:07:07;7.05;;;3.42;;
73452;SDS011;61687;56.232;43.854;2023-12-20T03:09:33;7.95;;;3.47;;
73452;SDS011;61687;56.232;43.854;2023-12-20T03:11:58;5.77;;;4.20;;
73452;SDS011;61687;56.232;43.854;2023-12-20T03:14:24;7.22;;;4.00;;
73452;SDS011;61687;56.232;43.854;2023-12-20T03:16:50;7.50;;;4.57;;
73452;SDS011;61687;56.232;43.854;2023-12-20T03:19:17;7.63;;;4.53;;
73452;SDS011;61687;56.232;43.854;2023-12-20T03:21:45;7.78;;;4.15;;
73452;SDS011;61687;56.232;43.854;2023-12-20T03:24:11;7.57;;;4.03;;
73452;SDS011;61687;56.232;43.854;2023-12-20T03:26:37;7.30;;;4.32;;
73452;SDS011;61687;56.232;43.854;2023-12-20T03:29:03;7.40;;;4.53;;
73452;SDS011;61687;56.232;43.854;2023-12-20T03:31:29;7.77;;;4.23;;
73452;SDS011;61687;56.232;43.854;2023-12-20T03:33:56;9.43;;;4.50;;
73452;SDS011;61687;56.232;43.854;2023-12-20T03:36:22;7.00;;;4.28;;
73452;SDS011;61687;56.232;43.854;2023-12-20T03:38:48;9.43;;;4.70;;
73452;SDS011;61687;56.232;43.854;2023-12-20T03:41:14;8.40;;;4.93;;
73452;SDS011;61687;56.232;43.854;2023-12-20T03:43:41;9.30;;;4.82;;
73452;SDS011;61687;56.232;43.854;2023-12-20T03:46:10;8.25;;;4.78;;
73452;SDS011;61687;56.232;43.854;2023-12-20T03:48:35;8.30;;;4.13;;
73452;SDS011;61687;56.232;43.854;2023-12-20T03:51:01;8.20;;;4.90;;
73452;SDS011;61687;56.232;43.854;2023-12-20T03:53:27;10.30;;;4.22;;
73452;SDS011;61687;56.232;43.854;2023-12-20T03:55:53;7.97;;;4.68;;
73452;SDS011;61687;56.232;43.854;2023-12-20T03:58:19;8.43;;;4.60;;
73452;SDS011;61687;56.232;43.854;2023-12-20T04:00:45;8.30;;;4.63;;
73452;SDS011;61687;56.232;43.854;2023-12-20T04:03:11;9.65;;;4.50;;
73452;SDS011;61687;56.232;43.854;2023-12-20T04:05:40;9.57;;;5.15;;
73452;SDS011;61687;56.232;43.854;2023-12-20T04:08:07;9.32;;;5.03;;
73452;SDS011;61687;56.232;43.854;2023-12-20T04:10:33;10.73;;;5.28;;
73452;SDS011;61687;56.232;43.854;2023-12-20T04:12:59;9.90;;;4.78;;
73452;SDS011;61687;56.232;43.854;2023-12-20T04:15:24;8.65;;;4.38;;
73452;SDS011;61687;56.232;43.854;2023-12-20T04:17:50;9.07;;;4.57;;
73452;SDS011;61687;56.232;43.854;2023-12-20T04:20:16;7.28;;;4.03;;
73452;SDS011;61687;56.232;43.854;2023-12-20T04:22:42;6.97;;;3.88;;
73452;SDS011;61687;56.232;43.854;2023-12-20T04:25:08;9.07;;;4.27;;
73452;SDS011;61687;56.232;43.854;2023-12-20T04:27:35;8.18;;;4.20;;
73452;SDS011;61687;56.232;43.854;2023-12-20T04:30:01;6.65;;;3.40;;
73452;SDS011;61687;56.232;43.854;2023-12-20T04:32:30;7.72;;;4.35;;
73452;SDS011;61687;56.232;43.854;2023-12-20T04:34:57;7.78;;;4.45;;
73452;SDS011;61687;56.232;43.854;2023-12-20T04:37:23;8.02;;;3.95;;
73452;SDS011;61687;56.232;43.854;2023-12-20T04:39:49;8.30;;;4.20;;
73452;SDS011;61687;56.232;43.854;2023-12-20T04:42:16;9.63;;;4.63;;
73452;SDS011;61687;56.232;43.854;2023-12-20T04:44:42;7.75;;;4.72;;
73452;SDS011;61687;56.232;43.854;2023-12-20T04:47:09;10.05;;;4.45;;
73452;SDS011;61687;56.232;43.854;2023-12-20T04:49:36;8.25;;;4.57;;
73452;SDS011;61687;56.232;43.854;2023-12-20T04:52:02;9.82;;;4.68;;
73452;SDS011;61687;56.232;43.854;2023-12-20T04:54:28;9.05;;;4.90;;
73452;SDS011;61687;56.232;43.854;2023-12-20T04:56:54;7.93;;;4.60;;
73452;SDS011;61687;56.232;43.854;2023-12-20T04:59:20;9.45;;;4.97;;
73452;SDS011;61687;56.232;43.854;2023-12-20T05:01:46;9.30;;;5.57;;
73452;SDS011;61687;56.232;43.854;2023-12-20T05:04:13;7.82;;;4.28;;
73452;SDS011;61687;56.232;43.854;2023-12-20T05:06:39;11.03;;;5.03;;
73452;SDS011;61687;56.232;43.854;2023-12-20T05:09:05;8.55;;;4.88;;
73452;SDS011;61687;56.232;43.854;2023-12-20T05:11:30;7.60;;;4.18;;
73452;SDS011;61687;56.232;43.854;2023-12-20T05:13:56;12.27;;;5.10;;
73452;SDS011;61687;56.232;43.854;2023-12-20T05:16:22;8.60;;;5.05;;
73452;SDS011;61687;56.232;43.854;2023-12-20T05:18:48;7.72;;;4.60;;
73452;SDS011;61687;56.232;43.854;2023-12-20T05:21:15;8.82;;;5.13;;
73452;SDS011;61687;56.232;43.854;2023-12-20T05:23:42;9.38;;;4.30;;
73452;SDS011;61687;56.232;43.854;2023-12-20T05:26:08;7.80;;;3.83;;
73452;SDS011;61687;56.232;43.854;2023-12-20T05:28:33;7.90;;;4.55;;
73452;SDS011;61687;56.232;43.854;2023-12-20T05:30:59;8.10;;;4.50;;
73452;SDS011;61687;56.232;43.854;2023-12-20T05:33:26;8.57;;;4.68;;
73452;SDS011;61687;56.232;43.854;2023-12-20T05:35:51;9.80;;;5.05;;
73452;SDS011;61687;56.232;43.854;2023-12-20T05:38:17;10.50;;;4.60;;
73452;SDS011;61687;56.232;43.854;2023-12-20T05:40:43;11.40;;;5.50;;
73452;SDS011;61687;56.232;43.854;2023-12-20T05:43:09;8.45;;;5.07;;
73452;SDS011;61687;56.232;43.854;2023-12-20T05:45:35;12.10;;;5.80;;
73452;SDS011;61687;56.232;43.854;2023-12-20T05:48:02;10.82;;;5.97;;
73452;SDS011;61687;56.232;43.854;2023-12-20T05:50:28;9.50;;;5.47;;
73452;SDS011;61687;56.232;43.854;2023-12-20T05:52:54;9.75;;;5.15;;
73452;SDS011;61687;56.232;43.854;2023-12-20T05:55:20;10.63;;;5.50;;
73452;SDS011;61687;56.232;43.854;2023-12-20T05:57:46;8.93;;;5.20;;
73452;SDS011;61687;56.232;43.854;2023-12-20T06:00:12;8.65;;;4.65;;
73452;SDS011;61687;56.232;43.854;2023-12-20T06:02:39;10.38;;;5.28;;
73452;SDS011;61687;56.232;43.854;2023-12-20T06:05:05;9.27;;;4.82;;
73452;SDS011;61687;56.232;43.854;2023-12-20T06:07:32;12.60;;;5.32;;
73452;SDS011;61687;56.232;43.854;2023-12-20T06:09:57;11.82;;;5.25;;
73452;SDS011;61687;56.232;43.854;2023-12-20T06:12:24;9.07;;;5.15;;
73452;SDS011;61687;56.232;43.854;2023-12-20T06:14:52;10.90;;;4.82;;
73452;SDS011;61687;56.232;43.854;2023-12-20T06:17:18;9.63;;;4.57;;
73452;SDS011;61687;56.232;43.854;2023-12-20T06:19:43;8.75;;;4.60;;
73452;SDS011;61687;56.232;43.854;2023-12-20T06:22:14;9.63;;;4.85;;
73452;SDS011;61687;56.232;43.854;2023-12-20T06:24:41;10.13;;;5.28;;
73452;SDS011;61687;56.232;43.854;2023-12-20T06:27:07;8.87;;;5.43;;
73452;SDS011;61687;56.232;43.854;2023-12-20T06:29:33;8.45;;;4.85;;
73452;SDS011;61687;56.232;43.854;2023-12-20T06:32:00;8.40;;;4.80;;
73452;SDS011;61687;56.232;43.854;2023-12-20T06:34:26;7.70;;;4.70;;
73452;SDS011;61687;56.232;43.854;2023-12-20T06:36:52;8.15;;;4.60;;
73452;SDS011;61687;56.232;43.854;2023-12-20T06:39:18;8.23;;;4.47;;
73452;SDS011;61687;56.232;43.854;2023-12-20T06:41:44;9.40;;;4.97;;
73452;SDS011;61687;56.232;43.854;2023-12-20T06:44:10;7.78;;;4.40;;
73452;SDS011;61687;56.232;43.854;2023-12-20T06:46:36;7.30;;;4.43;;
73452;SDS011;61687;56.232;43.854;2023-12-20T06:49:02;7.13;;;4.33;;
73452;SDS011;61687;56.232;43.854;2023-12-20T06:51:27;8.13;;;3.97;;
73452;SDS011;61687;56.232;43.854;2023-12-20T06:53:54;9.18;;;4.72;;
73452;SDS011;61687;56.232;43.854;2023-12-20T06:56:20;7.30;;;3.93;;
73452;SDS011;61687;56.232;43.854;2023-12-20T06:58:46;10.60;;;4.40;;
73452;SDS011;61687;56.232;43.854;2023-12-20T07:01:15;8.25;;;4.18;;
73452;SDS011;61687;56.232;43.854;2023-12-20T07:03:42;6.38;;;3.85;;
73452;SDS011;61687;56.232;43.854;2023-12-20T07:06:09;6.20;;;3.97;;
73452;SDS011;61687;56.232;43.854;2023-12-20T07:08:35;7.57;;;4.10;;
73452;SDS011;61687;56.232;43.854;2023-12-20T07:11:01;6.63;;;3.97;;
73452;SDS011;61687;56.232;43.854;2023-12-20T07:13:26;7.70;;;4.38;;
73452;SDS011;61687;56.232;43.854;2023-12-20T07:15:52;7.57;;;3.88;;
73452;SDS011;61687;56.232;43.854;2023-12-20T07:18:18;6.85;;;4.00;;
73452;SDS011;61687;56.232;43.854;2023-12-20T07:20:44;7.25;;;4.40;;
73452;SDS011;61687;56.232;43.854;2023-12-20T07:23:10;9.20;;;4.93;;
73452;SDS011;61687;56.232;43.854;2023-12-20T07:25:37;8.45;;;4.95;;
73452;SDS011;61687;56.232;43.854;2023-12-20T07:28:03;8.27;;;4.70;;
73452;SDS011;61687;56.232;43.854;2023-12-20T07:30:29;9.00;;;5.30;;
73452;SDS011;61687;56.232;43.854;2023-12-20T07:32:56;8.70;;;4.88;;
73452;SDS011;61687;56.232;43.854;2023-12-20T07:35:23;7.95;;;4.55;;
73452;SDS011;61687;56.232;43.854;2023-12-20T07:37:49;8.85;;;4.47;;
73452;SDS011;61687;56.232;43.854;2023-12-20T07:40:15;7.65;;;4.40;;
73452;SDS011;61687;56.232;43.854;2023-12-20T07:42:44;8.38;;;4.72;;
73452;SDS011;61687;56.232;43.854;2023-12-20T07:45:10;7.53;;;4.50;;
73452;SDS011;61687;56.232;43.854;2023-12-20T07:47:37;10.60;;;5.40;;
73452;SDS011;61687;56.232;43.854;2023-12-20T07:50:03;11.10;;;5.43;;
73452;SDS011;61687;56.232;43.854;2023-12-20T07:52:30;12.23;;;4.97;;
73452;SDS011;61687;56.232;43.854;2023-12-20T07:54:56;8.95;;;5.05;;
73452;SDS011;61687;56.232;43.854;2023-12-20T07:57:23;8.13;;;4.88;;
73452;SDS011;61687;56.232;43.854;2023-12-20T07:59:49;8.32;;;5.35;;
73452;SDS011;61687;56.232;43.854;2023-12-20T08:02:16;8.77;;;4.90;;
73452;SDS011;61687;56.232;43.854;2023-12-20T08:04:42;8.45;;;4.45;;
73452;SDS011;61687;56.232;43.854;2023-12-20T08:07:08;8.70;;;5.05;;
73452;SDS011;61687;56.232;43.854;2023-12-20T08:09:34;6.45;;;3.63;;
73452;SDS011;61687;56.232;43.854;2023-12-20T08:12:03;6.43;;;3.75;;
73452;SDS011;61687;56.232;43.854;2023-12-20T08:14:29;8.73;;;3.87;;
73452;SDS011;61687;56.232;43.854;2023-12-20T08:16:57;6.35;;;3.55;;
73452;SDS011;61687;56.232;43.854;2023-12-20T08:19:23;6.82;;;3.35;;
73452;SDS011;61687;56.232;43.854;2023-12-20T08:21:48;6.53;;;3.47;;
73452;SDS011;61687;56.232;43.854;2023-12-20T08:24:14;7.30;;;3.10;;
73452;SDS011;61687;56.232;43.854;2023-12-20T08:26:40;6.80;;;3.70;;
73452;SDS011;61687;56.232;43.854;2023-12-20T08:29:06;6.50;;;4.05;;
73452;SDS011;61687;56.232;43.854;2023-12-20T08:31:32;7.73;;;4.30;;
73452;SDS011;61687;56.232;43.854;2023-12-20T08:33:58;9.40;;;4.93;;
73452;SDS011;61687;56.232;43.854;2023-12-20T08:36:24;7.03;;;3.92;;
73452;SDS011;61687;56.232;43.854;2023-12-20T08:38:50;10.35;;;5.38;;
73452;SDS011;61687;56.232;43.854;2023-12-20T08:41:16;8.07;;;4.80;;
73452;SDS011;61687;56.232;43.854;2023-12-20T08:43:43;11.25;;;4.82;;
73452;SDS011;61687;56.232;43.854;2023-12-20T08:46:09;9.65;;;4.28;;
73452;SDS011;61687;56.232;43.854;2023-12-20T08:48:35;8.63;;;4.78;;
73452;SDS011;61687;56.232;43.854;2023-12-20T08:51:01;9.30;;;5.30;;
73452;SDS011;61687;56.232;43.854;2023-12-20T08:53:27;10.75;;;4.85;;
73452;SDS011;61687;56.232;43.854;2023-12-20T08:55:53;7.00;;;4.45;;
73452;SDS011;61687;56.232;43.854;2023-12-20T08:58:19;7.82;;;4.15;;
73452;SDS011;61687;56.232;43.854;2023-12-20T09:00:45;7.37;;;4.50;;
73452;SDS011;61687;56.232;43.854;2023-12-20T09:03:11;9.00;;;4.63;;
73452;SDS011;61687;56.232;43.854;2023-12-20T09:05:37;8.95;;;4.20;;
73452;SDS011;61687;56.232;43.854;2023-12-20T09:08:03;7.80;;;4.25;;
73452;SDS011;61687;56.232;43.854;2023-12-20T09:10:29;7.03;;;4.00;;
73452;SDS011;61687;56.232;43.854;2023-12-20T09:12:55;10.10;;;3.88;;
73452;SDS011;61687;56.232;43.854;2023-12-20T09:15:23;8.30;;;4.68;;
73452;SDS011;61687;56.232;43.854;2023-12-20T09:17:51;8.52;;;4.30;;
73452;SDS011;61687;56.232;43.854;2023-12-20T09:20:17;7.10;;;4.07;;
73452;SDS011;61687;56.232;43.854;2023-12-20T09:22:43;6.03;;;3.85;;
73452;SDS011;61687;56.232;43.854;2023-12-20T09:25:10;6.25;;;3.95;;
73452;SDS011;61687;56.232;43.854;2023-12-20T09:27:36;7.22;;;3.35;;
73452;SDS011;61687;56.232;43.854;2023-12-20T09:30:03;7.90;;;3.80;;
73452;SDS011;61687;56.232;43.854;2023-12-20T09:32:33;7.18;;;3.90;;
73452;SDS011;61687;56.232;43.854;2023-12-20T09:34:59;6.93;;;3.92;;
73452;SDS011;61687;56.232;43.854;2023-12-20T09:37:26;6.45;;;4.13;;
73452;SDS011;61687;56.232;43.854;2023-12-20T09:39:54;8.02;;;4.10;;
73452;SDS011;61687;56.232;43.854;2023-12-20T09:43:21;10.05;;;5.45;;
73452;SDS011;61687;56.232;43.854;2023-12-20T09:45:28;10.70;;;5.72;;
73452;SDS011;61687;56.232;43.854;2023-12-20T09:47:57;6.50;;;4.07;;
73452;SDS011;61687;56.232;43.854;2023-12-20T09:50:23;7.47;;;4.57;;
73452;SDS011;61687;56.232;43.854;2023-12-20T09:52:50;10.63;;;5.13;;
73452;SDS011;61687;56.232;43.854;2023-12-20T09:55:18;9.50;;;4.90;;
73452;SDS011;61687;56.232;43.854;2023-12-20T09:57:46;10.23;;;5.13;;
73452;SDS011;61687;56.232;43.854;2023-12-20T10:00:13;9.68;;;5.18;;
73452;SDS011;61687;56.232;43.854;2023-12-20T10:02:42;11.38;;;5.03;;
73452;SDS011;61687;56.232;43.854;2023-12-20T10:05:16;8.63;;;5.00;;
73452;SDS011;61687;56.232;43.854;2023-12-20T10:07:46;10.25;;;5.60;;
73452;SDS011;61687;56.232;43.854;2023-12-20T10:10:15;10.63;;;4.85;;
73452;SDS011;61687;56.232;43.854;2023-12-20T10:12:42;7.85;;;4.95;;
73452;SDS011;61687;56.232;43.854;2023-12-20T10:15:36;9.98;;;5.65;;
73452;SDS011;61687;56.232;43.854;2023-12-20T10:18:03;9.65;;;4.68;;
73452;SDS011;61687;56.232;43.854;2023-12-20T10:20:30;6.82;;;4.20;;
73452;SDS011;61687;56.232;43.854;2023-12-20T10:22:57;8.52;;;4.45;;
73452;SDS011;61687;56.232;43.854;2023-12-20T10:25:24;9.40;;;5.20;;
73452;SDS011;61687;56.232;43.854;2023-12-20T10:28:08;8.98;;;5.45;;
73452;SDS011;61687;56.232;43.854;2023-12-20T10:30:38;6.13;;;4.15;;
73452;SDS011;61687;56.232;43.854;2023-12-20T10:33:06;7.28;;;4.60;;
73452;SDS011;61687;56.232;43.854;2023-12-20T10:35:36;6.72;;;4.05;;
73452;SDS011;61687;56.232;43.854;2023-12-20T10:38:04;7.30;;;4.90;;
73452;SDS011;61687;56.232;43.854;2023-12-20T10:40:34;7.32;;;4.22;;
73452;SDS011;61687;56.232;43.854;2023-12-20T10:43:02;6.47;;;3.83;;
73452;SDS011;61687;56.232;43.854;2023-12-20T10:45:29;7.80;;;3.47;;
73452;SDS011;61687;56.232;43.854;2023-12-20T10:47:55;5.53;;;3.42;;
73452;SDS011;61687;56.232;43.854;2023-12-20T10:50:25;9.10;;;3.10;;
73452;SDS011;61687;56.232;43.854;2023-12-20T10:52:52;5.25;;;3.47;;
73452;SDS011;61687;56.232;43.854;2023-12-20T10:55:22;6.53;;;3.72;;
73452;SDS011;61687;56.232;43.854;2023-12-20T10:57:51;6.00;;;3.78;;
73452;SDS011;61687;56.232;43.854;2023-12-20T11:00:18;8.00;;;4.13;;
73452;SDS011;61687;56.232;43.854;2023-12-20T11:02:44;7.65;;;3.95;;
73452;SDS011;61687;56.232;43.854;2023-12-20T11:07:50;8.15;;;4.03;;
73452;SDS011;61687;56.232;43.854;2023-12-20T11:10:39;7.28;;;4.22;;
73452;SDS011;61687;56.232;43.854;2023-12-20T11:13:22;10.43;;;4.13;;
73452;SDS011;61687;56.232;43.854;2023-12-20T11:15:55;7.70;;;4.18;;
73452;SDS011;61687;56.232;43.854;2023-12-20T11:18:28;9.98;;;3.38;;
73452;SDS011;61687;56.232;43.854;2023-12-20T11:20:56;9.15;;;3.95;;
73452;SDS011;61687;56.232;43.854;2023-12-20T11:23:29;13.05;;;4.43;;
73452;SDS011;61687;56.232;43.854;2023-12-20T11:25:56;8.13;;;4.27;;
73452;SDS011;61687;56.232;43.854;2023-12-20T11:28:26;9.30;;;4.53;;
73452;SDS011;61687;56.232;43.854;2023-12-20T11:30:53;8.48;;;4.63;;
73452;SDS011;61687;56.232;43.854;2023-12-20T11:33:24;10.82;;;4.72;;
73452;SDS011;61687;56.232;43.854;2023-12-20T11:35:51;8.60;;;5.35;;
73452;SDS011;61687;56.232;43.854;2023-12-20T11:38:21;9.70;;;4.83;;
73452;SDS011;61687;56.232;43.854;2023-12-20T11:40:50;11.75;;;5.28;;
73452;SDS011;61687;56.232;43.854;2023-12-20T11:43:39;9.18;;;5.20;;
73452;SDS011;61687;56.232;43.854;2023-12-20T11:46:05;9.35;;;5.50;;
73452;SDS011;61687;56.232;43.854;2023-12-20T11:48:33;11.07;;;5.10;;
73452;SDS011;61687;56.232;43.854;2023-12-20T11:51:09;10.13;;;4.33;;
73452;SDS011;61687;56.232;43.854;2023-12-20T11:53:36;9.68;;;5.28;;
73452;SDS011;61687;56.232;43.854;2023-12-20T11:56:03;9.95;;;5.45;;
73452;SDS011;61687;56.232;43.854;2023-12-20T11:58:29;9.55;;;4.50;;
73452;SDS011;61687;56.232;43.854;2023-12-20T12:00:56;9.88;;;5.28;;
73452;SDS011;61687;56.232;43.854;2023-12-20T12:03:22;6.80;;;4.00;;
73452;SDS011;61687;56.232;43.854;2023-12-20T12:05:49;10.63;;;5.25;;
73452;SDS011;61687;56.232;43.854;2023-12-20T12:08:16;9.82;;;5.47;;
73452;SDS011;61687;56.232;43.854;2023-12-20T12:10:45;7.63;;;4.30;;
73452;SDS011;61687;56.232;43.854;2023-12-20T12:13:11;9.55;;;5.13;;
73452;SDS011;61687;56.232;43.854;2023-12-20T12:15:39;9.57;;;5.27;;
73452;SDS011;61687;56.232;43.854;2023-12-20T12:18:08;8.25;;;5.22;;
73452;SDS011;61687;56.232;43.854;2023-12-20T12:20:36;10.70;;;5.82;;
73452;SDS011;61687;56.232;43.854;2023-12-20T12:23:05;10.23;;;5.13;;
73452;SDS011;61687;56.232;43.854;2023-12-20T12:25:32;9.55;;;4.95;;
73452;SDS011;61687;56.232;43.854;2023-12-20T12:28:01;11.53;;;5.10;;
73452;SDS011;61687;56.232;43.854;2023-12-20T12:30:27;11.93;;;5.30;;
73452;SDS011;61687;56.232;43.854;2023-12-20T12:32:53;11.30;;;5.45;;
73452;SDS011;61687;56.232;43.854;2023-12-20T12:35:21;9.85;;;5.18;;
73452;SDS011;61687;56.232;43.854;2023-12-20T12:37:47;10.32;;;5.60;;
73452;SDS011;61687;56.232;43.854;2023-12-20T12:40:17;11.13;;;5.68;;
73452;SDS011;61687;56.232;43.854;2023-12-20T12:42:45;13.15;;;5.35;;
73452;SDS011;61687;56.232;43.854;2023-12-20T12:45:11;9.38;;;5.35;;
73452;SDS011;61687;56.232;43.854;2023-12-20T12:47:37;11.65;;;5.28;;
73452;SDS011;61687;56.232;43.854;2023-12-20T12:50:04;11.63;;;6.53;;
73452;SDS011;61687;56.232;43.854;2023-12-20T12:52:31;12.63;;;5.63;;
73452;SDS011;61687;56.232;43.854;2023-12-20T12:54:58;11.60;;;5.97;;
73452;SDS011;61687;56.232;43.854;2023-12-20T12:57:24;9.07;;;5.07;;
73452;SDS011;61687;56.232;43.854;2023-12-20T12:59:50;11.52;;;5.45;;
73452;SDS011;61687;56.232;43.854;2023-12-20T13:02:16;10.67;;;5.70;;
73452;SDS011;61687;56.232;43.854;2023-12-20T13:04:42;9.32;;;5.70;;
73452;SDS011;61687;56.232;43.854;2023-12-20T13:07:09;11.10;;;5.45;;
73452;SDS011;61687;56.232;43.854;2023-12-20T13:09:39;10.77;;;5.55;;
73452;SDS011;61687;56.232;43.854;2023-12-20T13:12:06;11.98;;;5.30;;
73452;SDS011;61687;56.232;43.854;2023-12-20T13:14:33;8.37;;;5.07;;
73452;SDS011;61687;56.232;43.854;2023-12-20T13:17:01;10.43;;;5.65;;
73452;SDS011;61687;56.232;43.854;2023-12-20T13:19:27;8.75;;;5.90;;
73452;SDS011;61687;56.232;43.854;2023-12-20T13:21:53;8.10;;;5.00;;
73452;SDS011;61687;56.232;43.854;2023-12-20T13:24:20;10.40;;;5.18;;
73452;SDS011;61687;56.232;43.854;2023-12-20T13:26:46;8.93;;;4.73;;
73452;SDS011;61687;56.232;43.854;2023-12-20T13:29:12;9.77;;;4.90;;
73452;SDS011;61687;56.232;43.854;2023-12-20T13:31:38;9.98;;;5.18;;
73452;SDS011;61687;56.232;43.854;2023-12-20T13:34:06;9.15;;;5.30;;
73452;SDS011;61687;56.232;43.854;2023-12-20T13:36:33;10.35;;;5.15;;
73452;SDS011;61687;56.232;43.854;2023-12-20T13:38:59;8.90;;;4.97;;
73452;SDS011;61687;56.232;43.854;2023-12-20T13:41:25;9.57;;;5.05;;
73452;SDS011;61687;56.232;43.854;2023-12-20T13:43:51;7.72;;;5.35;;
73452;SDS011;61687;56.232;43.854;2023-12-20T13:46:17;9.55;;;4.88;;
73452;SDS011;61687;56.232;43.854;2023-12-20T13:48:43;10.65;;;5.72;;
73452;SDS011;61687;56.232;43.854;2023-12-20T13:51:10;8.70;;;4.85;;
73452;SDS011;61687;56.232;43.854;2023-12-20T13:53:36;10.63;;;5.63;;
73452;SDS011;61687;56.232;43.854;2023-12-20T13:56:02;7.45;;;4.60;;
73452;SDS011;61687;56.232;43.854;2023-12-20T13:58:28;9.70;;;4.50;;
73452;SDS011;61687;56.232;43.854;2023-12-20T14:00:54;8.77;;;4.60;;
73452;SDS011;61687;56.232;43.854;2023-12-20T14:03:19;10.32;;;5.47;;
73452;SDS011;61687;56.232;43.854;2023-12-20T14:05:46;11.63;;;5.47;;
73452;SDS011;61687;56.232;43.854;2023-12-20T14:08:12;10.63;;;5.57;;
73452;SDS011;61687;56.232;43.854;2023-12-20T14:10:38;12.25;;;5.28;;
73452;SDS011;61687;56.232;43.854;2023-12-20T14:13:04;11.20;;;5.78;;
73452;SDS011;61687;56.232;43.854;2023-12-20T14:15:31;11.98;;;5.78;;
73452;SDS011;61687;56.232;43.854;2023-12-20T14:18:04;10.73;;;5.22;;
73452;SDS011;61687;56.232;43.854;2023-12-20T14:20:31;10.82;;;5.60;;
73452;SDS011;61687;56.232;43.854;2023-12-20T14:23:03;12.13;;;5.82;;
73452;SDS011;61687;56.232;43.854;2023-12-20T14:25:29;10.82;;;5.80;;
73452;SDS011;61687;56.232;43.854;2023-12-20T14:27:57;13.48;;;6.43;;
73452;SDS011;61687;56.232;43.854;2023-12-20T14:30:23;11.45;;;5.53;;
73452;SDS011;61687;56.232;43.854;2023-12-20T14:32:50;8.20;;;4.88;;